Date,TemperatureHighF,TemperatureAvgF,TemperatureLowF,DewpointHighF,DewpointAvgF,DewpointLowF,HumidityHigh,HumidityAvg,HumidityLow,PressureMaxIn,PressureMinIn,WindSpeedMaxMPH,WindSpeedAvgMPH,GustSpeedMaxMPH,PrecipitationSumIn
2013-1-1,27,14,5,11,5,-2,85,69,45,0.00,40.00,6,3,11,0.01
2013-1-2,29,15,5,9,2,-3,74,59,41,0.00,40.00,9,4,10,0.01
2013-1-3,28,14,5,2,-4,-10,63,45,29,0.00,40.00,7,5,11,0.00
2013-1-4,30,16,7,7,-2,-7,62,44,32,0.00,40.00,8,4,11,0.00
2013-1-5,34,19,7,6,-1,-7,56,43,27,0.00,40.00,7,2,9,0.00
2013-1-6,33,20,10,7,2,-3,56,45,32,0.00,40.00,6,3,9,0.00
2013-1-7,43,24,16,14,4,-1,54,42,25,0.00,40.00,9,4,12,0.00
2013-1-8,39,26,16,18,10,1,69,50,38,0.00,40.00,8,4,13,0.00
2013-1-9,39,28,21,18,13,10,68,55,42,0.00,40.00,8,4,10,0.00
2013-1-10,39,31,24,22,15,11,60,51,32,0.00,40.00,20,10,41,0.00
2013-1-11,32,18,10,25,6,-5,89,62,44,0.00,40.00,18,12,36,0.00
2013-1-12,19,9,-1,2,-5,-10,69,52,40,0.00,40.00,11,7,15,0.00
2013-1-13,14,5,-4,3,-4,-12,78,67,44,0.00,40.00,8,4,13,0.00
2013-1-14,14,2,-6,-9,-12,-15,70,54,31,0.00,40.00,8,5,15,0.00
2013-1-15,20,6,-5,0,-8,-17,63,52,41,0.00,40.00,10,5,18,0.00
2013-1-16,33,19,3,10,4,-3,78,56,37,0.00,40.00,8,5,15,0.04
2013-1-17,39,27,20,14,8,2,61,43,34,0.00,40.00,9,3,14,0.01
2013-1-18,41,26,19,15,10,7,63,51,34,0.00,40.00,6,2,11,0.01
2013-1-19,44,27,16,16,10,2,65,50,30,0.00,40.00,6,3,10,0.00
2013-1-20,43,27,15,14,7,0,64,44,28,0.00,40.00,7,3,9,0.00
2013-1-21,49,30,20,16,6,0,50,37,18,0.00,40.00,6,3,10,0.00
2013-1-22,45,29,19,13,5,-2,51,36,21,0.00,40.00,8,4,9,0.00
2013-1-23,43,32,25,14,7,1,51,36,25,0.00,40.00,6,3,8,0.00
2013-1-24,44,33,27,30,17,7,86,54,34,0.00,40.00,7,3,10,0.00
2013-1-25,38,34,30,34,32,27,97,92,84,0.00,40.00,4,2,6,0.04
2013-1-26,44,35,32,38,34,31,97,95,78,0.00,40.00,5,2,8,0.18
2013-1-27,45,36,31,35,31,27,97,82,56,0.00,40.00,11,6,23,0.14
2013-1-28,38,28,13,29,23,9,92,80,54,0.00,40.00,12,7,27,0.17
2013-1-29,29,16,7,14,9,2,84,73,51,0.00,40.00,7,5,14,0.09
2013-1-30,34,24,11,18,12,4,82,61,45,0.00,40.00,13,9,24,0.01
2013-1-31,42,35,25,21,18,16,67,50,39,0.00,40.00,12,7,19,0.01
2013-2-1,44,32,19,23,18,14,83,58,38,0.00,40.00,13,6,23,0.01
2013-2-2,46,31,20,23,17,10,73,56,30,0.00,40.00,8,3,13,0.00
2013-2-3,38,29,23,23,17,8,89,61,44,0.00,40.00,5,2,13,0.00
2013-2-4,42,28,20,28,20,13,86,73,51,0.00,40.00,7,4,13,0.00
2013-2-5,50,33,22,25,17,11,78,53,31,0.00,40.00,7,3,10,0.00
2013-2-6,47,34,26,25,20,13,78,57,37,0.00,40.00,9,5,18,0.00
2013-2-7,44,32,22,24,19,13,82,60,39,0.00,40.00,9,4,15,0.00
2013-2-8,45,36,28,27,20,13,94,54,35,0.00,40.00,17,9,38,0.00
2013-2-9,33,27,21,26,20,14,92,76,51,0.00,40.00,10,4,16,0.14
2013-2-10,29,22,16,22,16,12,88,77,58,0.00,40.00,10,5,16,0.01
2013-2-11,29,19,8,20,14,4,90,79,57,0.00,40.00,9,4,14,0.16
2013-2-12,34,18,5,13,6,-1,84,64,36,0.00,40.00,7,4,12,0.01
2013-2-13,40,24,11,19,11,4,75,58,35,0.00,40.00,7,4,12,0.01
2013-2-14,40,28,20,19,15,12,75,58,39,0.00,40.00,7,4,13,0.00
2013-2-15,42,28,17,18,12,7,76,52,29,0.00,40.00,7,4,12,0.00
2013-2-16,45,30,18,20,13,7,66,50,34,0.00,40.00,7,4,10,0.00
2013-2-17,45,33,23,19,14,6,64,47,30,0.00,40.00,11,5,22,0.00
2013-2-18,36,24,12,8,5,1,66,44,25,0.00,40.00,9,5,19,0.00
2013-2-19,45,31,18,13,5,-5,50,34,18,0.00,40.00,12,4,25,0.00
2013-2-20,43,34,27,24,14,8,68,44,29,0.00,40.00,10,5,19,0.00
2013-2-21,39,30,24,24,20,18,91,68,43,0.00,40.00,10,4,17,0.00
2013-2-22,30,23,17,21,15,6,90,72,46,0.00,40.00,10,4,15,0.12
2013-2-23,36,23,15,22,13,5,90,67,44,0.00,40.00,12,6,27,0.01
2013-2-24,27,19,11,17,10,4,79,70,65,0.00,40.00,11,6,20,0.10
2013-2-25,37,23,10,16,9,3,75,57,33,0.00,40.00,9,5,13,0.01
2013-2-26,29,22,13,19,12,4,90,67,46,0.00,40.00,10,6,17,0.09
2013-2-27,37,21,11,11,6,3,74,55,25,0.00,40.00,7,5,13,0.01
2013-2-28,42,27,14,14,7,2,63,44,26,0.00,40.00,9,5,13,0.00
2013-3-1,49,37,26,23,17,5,66,45,35,0.00,40.00,8,4,12,0.00
2013-3-2,52,39,28,27,23,18,70,53,37,0.00,40.00,7,4,10,0.00
2013-3-3,52,42,34,32,24,20,80,51,33,0.00,40.00,13,6,23,0.00
2013-3-4,46,35,19,33,24,4,89,64,29,0.00,40.00,15,10,30,0.04
2013-3-5,46,32,18,16,7,-4,55,35,21,0.00,40.00,7,4,10,0.01
2013-3-6,55,46,33,22,16,9,38,30,23,0.00,40.00,13,7,29,0.00
2013-3-7,57,47,39,20,16,11,41,29,16,0.00,40.00,12,8,24,0.00
2013-3-8,45,40,34,32,22,12,89,51,27,0.00,40.00,15,7,28,0.00
2013-3-9,36,30,24,28,24,14,92,76,63,0.00,40.00,12,6,23,0.06
2013-3-10,43,32,20,19,15,12,72,53,35,0.00,40.00,9,4,17,0.03
2013-3-11,47,38,28,22,19,17,66,48,37,0.00,40.00,11,7,20,0.00
2013-3-12,52,43,36,27,24,22,60,49,36,0.00,40.00,10,5,16,0.00
2013-3-13,57,46,33,28,24,18,68,45,27,0.00,40.00,8,4,12,0.00
2013-3-14,65,50,38,31,22,18,50,35,19,0.00,40.00,8,5,16,0.00
2013-3-15,64,53,43,27,22,18,44,30,20,0.00,40.00,9,5,21,0.00
2013-3-16,58,51,43,30,25,17,50,37,20,0.00,40.00,12,6,28,0.00
2013-3-17,51,44,33,26,16,3,61,35,18,0.00,40.00,20,11,39,0.00
2013-3-18,47,37,26,12,10,8,50,33,20,0.00,40.00,17,8,30,0.00
2013-3-19,50,39,32,14,7,-2,47,29,11,0.00,40.00,8,4,17,0.00
2013-3-20,52,42,32,21,12,3,39,29,23,0.00,40.00,10,5,23,0.00
2013-3-21,47,40,29,33,18,1,93,46,16,0.00,40.00,20,9,37,0.11
2013-3-22,45,34,26,11,5,-2,49,30,16,0.00,40.00,18,8,31,0.01
2013-3-23,30,22,15,10,1,-5,60,41,27,0.00,40.00,12,6,25,0.00
2013-3-24,34,23,14,8,3,-1,61,43,25,0.00,40.00,8,5,20,0.00
2013-3-25,42,27,14,8,2,0,54,36,18,0.00,40.00,7,5,15,0.00
2013-3-26,57,41,26,14,12,8,49,33,18,0.00,40.00,12,5,24,0.00
2013-3-27,61,46,34,19,14,9,46,30,13,0.00,40.00,12,6,21,0.00
2013-3-28,63,56,47,18,15,11,29,20,14,0.00,40.00,12,8,21,0.00
2013-3-29,64,53,43,28,21,15,49,30,18,0.00,40.00,10,7,22,0.00
2013-3-30,63,50,39,31,25,22,57,40,21,0.00,40.00,15,5,25,0.00
2013-3-31,64,52,40,28,21,14,48,31,14,0.00,40.00,10,7,20,0.00
2013-4-1,61,49,38,40,27,11,71,44,14,0.00,40.00,15,7,27,0.04
2013-4-2,47,39,34,36,30,24,88,71,57,0.00,40.00,10,5,20,0.11
2013-4-3,59,45,31,32,27,22,88,55,25,0.00,40.00,9,5,16,0.04
2013-4-4,65,52,38,26,22,17,53,32,19,0.00,40.00,12,6,22,0.00
2013-4-5,64,55,44,30,21,14,52,28,20,0.00,40.00,15,8,31,0.00
2013-4-6,59,47,36,32,23,17,66,42,20,0.00,40.00,9,5,29,0.00
2013-4-7,60,49,38,30,22,10,64,36,17,0.00,40.00,17,8,29,0.00
2013-4-8,53,44,35,36,23,10,95,50,21,0.00,40.00,17,10,42,0.16
2013-4-9,37,28,16,31,20,9,92,72,54,0.00,40.00,12,6,25,0.02
2013-4-10,40,27,11,18,11,5,86,55,28,0.00,40.00,9,6,20,0.02
2013-4-11,51,38,28,33,24,13,79,57,47,0.00,40.00,9,5,18,0.01
2013-4-12,59,46,38,27,20,8,64,38,14,0.00,40.00,10,6,16,0.00
2013-4-13,62,52,41,32,16,3,50,25,17,0.00,40.00,20,12,44,0.00
2013-4-14,50,41,29,37,18,5,93,47,17,0.00,40.00,14,6,28,0.11
2013-4-15,39,35,32,33,26,12,94,75,33,0.00,40.00,11,5,22,0.36
2013-4-16,44,37,28,36,31,26,95,80,55,0.00,40.00,10,6,24,0.27
2013-4-17,30,25,14,26,18,6,95,78,61,0.00,40.00,9,6,18,0.08
2013-4-18,35,24,12,15,11,6,78,60,42,0.00,40.00,8,5,17,0.02
2013-4-19,48,34,21,23,16,10,64,49,33,0.00,40.00,11,6,21,0.02
2013-4-20,50,40,33,35,29,23,86,65,46,0.00,40.00,9,5,22,0.00
2013-4-21,57,45,32,29,22,13,81,44,18,0.00,40.00,11,6,21,0.00
2013-4-22,61,51,41,27,21,16,50,31,19,0.00,40.00,18,9,33,0.00
2013-4-23,45,37,27,22,11,1,64,37,16,0.00,40.00,12,7,23,0.00
2013-4-24,53,42,32,11,7,2,34,24,15,0.00,40.00,8,5,25,0.00
2013-4-25,63,49,34,18,12,9,39,23,14,0.00,40.00,13,6,22,0.00
2013-4-26,64,52,37,16,12,8,33,22,11,0.00,40.00,8,5,18,0.00
2013-4-27,68,55,40,17,12,7,29,18,10,0.00,40.00,9,6,18,0.00
2013-4-28,73,60,44,22,16,7,29,18,13,0.00,40.00,11,7,24,0.00
2013-4-29,71,62,50,25,21,18,32,22,14,0.00,40.00,15,8,28,0.00
2013-4-30,71,64,49,32,24,18,51,23,17,0.00,40.00,15,10,29,0.02
2013-5-1,51,40,32,36,18,2,98,50,15,0.00,40.00,13,7,26,0.22
2013-5-2,52,38,24,18,10,6,60,36,16,0.00,40.00,12,5,21,0.01
2013-5-3,62,47,32,17,10,3,37,23,13,0.00,40.00,8,6,18,0.00
2013-5-4,68,55,43,21,12,2,32,18,13,0.00,40.00,9,5,18,0.00
2013-5-5,68,59,50,21,14,10,24,17,12,0.00,40.00,17,8,30,0.00
2013-5-6,60,48,40,42,34,19,94,61,23,0.00,40.00,15,6,38,0.24
2013-5-7,50,44,36,44,38,34,95,83,65,0.00,40.00,10,5,22,0.25
2013-5-8,49,42,35,42,38,34,99,89,71,0.00,40.00,9,4,20,0.43
2013-5-9,59,48,40,42,39,31,99,75,42,0.00,40.00,11,5,21,0.15
2013-5-10,64,53,41,38,32,-100,75,49,27,0.00,40.00,15,6,27,0.01
2013-5-11,70,58,44,36,29,23,55,35,18,0.00,40.00,8,6,16,0.00
2013-5-12,75,63,48,35,30,26,46,29,20,0.00,40.00,9,6,18,0.00
2013-5-13,79,67,53,37,31,28,40,27,16,0.00,40.00,10,6,20,0.00
2013-5-14,81,69,58,40,32,28,39,26,16,0.00,40.00,11,8,21,0.00
2013-5-15,78,66,54,39,35,26,54,33,16,0.00,40.00,12,6,28,0.00
2013-5-16,77,61,51,38,15,-100,55,28,14,0.00,40.00,12,7,24,0.00
2013-5-17,72,63,53,28,17,-100,33,20,13,0.00,40.00,11,8,23,0.00
2013-5-18,63,55,43,35,31,25,63,41,23,0.00,40.00,14,8,27,0.00
2013-5-19,61,50,39,32,29,26,67,46,27,0.00,40.00,14,6,23,0.00
2013-5-20,58,48,36,37,32,29,76,56,39,0.00,40.00,13,5,21,0.00
2013-5-21,67,56,39,35,30,22,76,42,20,0.00,40.00,9,6,19,0.00
2013-5-22,78,65,53,26,22,18,32,21,12,0.00,40.00,11,9,32,0.00
2013-5-23,78,68,55,24,15,4,23,14,7,0.00,40.00,19,10,35,0.00
2013-5-24,75,65,48,18,13,8,24,13,10,0.00,40.00,14,8,26,0.00
2013-5-25,79,65,51,19,14,9,21,14,8,0.00,40.00,14,8,26,0.00
2013-5-26,79,67,55,19,14,7,18,13,8,0.00,40.00,10,8,30,0.00
2013-5-27,75,65,53,22,15,7,21,15,12,0.00,40.00,11,8,24,0.00
2013-5-28,72,61,44,42,24,15,91,27,15,0.00,40.00,15,10,36,0.16
2013-5-29,61,52,42,40,32,20,85,51,23,0.00,40.00,13,10,28,0.16
2013-5-30,67,56,45,28,23,16,43,30,15,0.00,40.00,18,10,34,0.00
2013-5-31,69,57,48,25,17,0,38,23,7,0.00,40.00,14,7,26,0.00
2013-6-1,70,57,39,25,20,10,42,25,16,0.00,40.00,10,6,20,0.00
2013-6-2,81,67,47,26,20,14,31,18,8,0.00,40.00,12,7,24,0.00
2013-6-3,84,74,65,26,20,14,19,13,10,0.00,40.00,16,10,30,0.00
2013-6-4,83,70,53,32,25,21,31,20,11,0.00,40.00,15,8,35,0.00
2013-6-5,79,67,53,30,26,22,34,23,14,0.00,40.00,9,5,21,0.00
2013-6-6,82,68,53,29,25,20,32,21,13,0.00,40.00,9,6,21,0.00
2013-6-7,83,71,56,34,29,25,34,22,12,0.00,40.00,10,6,30,0.00
2013-6-8,86,74,60,37,30,21,36,21,11,0.00,40.00,9,6,22,0.00
2013-6-9,89,75,55,33,27,18,41,19,8,0.00,40.00,11,6,17,0.00
2013-6-10,95,83,72,28,21,12,15,10,7,0.00,40.00,12,9,27,0.00
2013-6-11,83,75,65,21,16,5,16,11,7,0.00,40.00,16,11,35,0.00
2013-6-12,88,75,60,24,20,11,22,13,7,0.00,40.00,11,8,24,0.00
2013-6-13,86,78,68,30,25,-2,21,15,7,0.00,40.00,19,10,34,0.00
2013-6-14,84,74,61,19,8,-9,14,8,4,0.00,40.00,12,8,27,0.00
2013-6-15,84,70,51,34,21,8,28,17,9,0.00,40.00,14,8,35,0.01
2013-6-16,85,73,63,40,31,19,42,23,10,0.00,40.00,14,9,31,0.01
2013-6-17,87,74,59,29,21,14,21,15,7,0.00,40.00,10,6,22,0.01
2013-6-18,87,77,64,23,14,3,19,10,5,0.00,40.00,13,8,28,0.00
2013-6-19,85,75,63,17,8,1,13,8,4,0.00,40.00,18,11,40,0.00
2013-6-20,82,67,52,13,7,-2,16,10,7,0.00,40.00,12,8,26,0.00
2013-6-22,83,77,63,19,15,12,16,10,7,0.00,40.00,17,9,31,0.00
2013-6-23,84,72,53,22,18,10,24,14,8,0.00,40.00,10,6,22,0.00
2013-6-24,81,71,63,25,18,11,19,13,10,0.00,40.00,16,10,34,0.00
2013-6-25,83,72,60,35,29,21,34,21,14,0.00,40.00,11,8,23,0.00
2013-6-26,92,78,65,34,30,27,27,18,11,0.00,40.00,11,8,23,0.00
2013-6-27,95,80,64,34,30,27,30,17,9,0.00,40.00,10,6,21,0.00
2013-6-28,97,82,69,36,30,23,24,16,7,0.00,40.00,18,7,29,0.00
2013-6-29,94,82,70,38,35,28,29,19,10,0.00,40.00,12,6,35,0.00
2013-6-30,93,80,66,40,36,30,32,22,12,0.00,40.00,14,7,26,0.00
2013-7-1,93,79,65,40,35,29,37,23,12,0.00,40.00,13,7,26,0.00
2013-7-2,90,79,65,38,33,29,29,20,12,0.00,40.00,13,7,26,0.00
2013-7-3,92,77,63,41,33,29,33,22,11,0.00,40.00,16,8,28,0.00
2013-7-4,88,78,65,41,39,37,35,26,17,0.00,40.00,11,6,18,0.00
2013-7-5,89,79,66,46,41,36,39,26,17,0.00,40.00,15,9,35,0.00
2013-7-6,88,75,67,45,42,38,42,32,18,0.00,40.00,15,8,35,0.00
2013-7-7,91,76,60,56,44,40,87,35,18,0.00,40.00,13,7,47,0.14
2013-7-8,90,73,58,52,44,33,77,42,14,0.00,40.00,15,7,25,0.14
2013-7-9,93,81,70,41,36,27,31,21,12,0.00,40.00,11,7,23,0.00
2013-7-10,95,83,68,31,23,-100,21,12,7,0.00,40.00,11,7,23,0.00
2013-7-11,93,78,62,57,44,22,85,35,13,0.00,40.00,15,9,31,0.06
2013-7-12,85,72,59,55,50,43,76,51,24,0.00,40.00,12,6,22,0.06
2013-7-13,88,73,59,57,50,42,88,51,21,0.00,40.00,16,6,36,0.05
2013-7-14,86,74,59,52,47,40,68,41,22,0.00,40.00,12,6,24,0.00
2013-7-15,91,78,67,49,45,40,46,33,18,0.00,40.00,10,6,20,0.00
2013-7-16,83,78,72,58,53,50,54,43,34,0.00,40.00,13,7,26,0.57
2013-7-17,84,72,59,59,54,49,93,56,34,0.00,40.00,13,6,26,0.07
2013-7-18,86,74,59,54,51,46,82,48,26,0.00,40.00,12,6,32,0.00
2013-7-19,88,75,59,54,48,40,77,43,19,0.00,40.00,9,5,18,0.00
2013-7-20,90,76,63,52,42,-100,59,33,15,0.00,40.00,11,6,19,0.00
2013-7-21,90,79,66,46,39,32,41,25,16,0.00,40.00,12,7,18,0.00
2013-7-22,92,80,68,45,36,25,40,23,9,0.00,40.00,12,6,24,0.00
2013-7-23,94,80,66,40,32,20,33,19,7,0.00,40.00,12,6,20,0.00
2013-7-24,84,75,65,46,39,27,47,29,16,0.00,40.00,9,5,20,0.00
2013-7-25,89,76,61,49,43,34,57,33,16,0.00,40.00,12,6,22,0.00
2013-7-26,90,77,62,45,36,24,42,24,12,0.00,40.00,10,6,26,0.00
2013-7-27,83,73,59,56,46,27,91,40,19,0.00,40.00,15,9,28,0.13
2013-7-28,78,64,58,60,56,50,98,76,39,0.00,40.00,9,4,21,0.35
2013-7-29,76,62,52,57,50,40,96,68,33,0.00,40.00,18,7,33,0.82
2013-7-30,83,69,54,52,43,31,75,43,15,0.00,40.00,9,6,20,0.00
2013-7-31,87,76,64,46,40,35,45,29,17,0.00,40.00,10,7,20,0.00
2013-8-1,73,65,56,59,49,38,92,63,28,0.00,40.00,13,8,31,0.39
2013-8-2,82,68,54,58,54,48,95,64,34,0.00,40.00,10,4,18,0.37
2013-8-3,85,72,59,55,51,46,73,49,27,0.00,40.00,10,6,17,0.01
2013-8-4,84,72,61,50,47,41,60,43,24,0.00,40.00,12,6,28,0.01
2013-8-5,80,70,60,51,46,41,64,43,26,0.00,40.00,11,6,21,0.00
2013-8-6,85,70,63,49,44,36,54,41,19,0.00,40.00,12,7,32,0.00
2013-8-7,79,66,57,49,46,42,73,50,29,0.00,40.00,19,6,32,0.01
2013-8-8,78,66,56,49,43,35,76,47,21,0.00,40.00,12,6,22,0.01
2013-8-9,80,68,56,44,40,35,53,38,21,0.00,40.00,10,6,18,0.00
2013-8-10,75,66,56,44,40,34,58,39,24,0.00,40.00,15,9,29,0.00
2013-8-11,81,67,51,46,41,36,70,41,21,0.00,40.00,15,6,21,0.00
2013-8-12,79,68,60,41,38,35,46,35,22,0.00,40.00,18,6,29,0.00
2013-8-13,83,68,53,42,32,-100,56,31,12,0.00,40.00,10,6,21,0.00
2013-8-14,86,72,60,36,26,-100,33,20,9,0.00,40.00,11,6,20,0.00
2013-8-15,87,70,61,32,16,-100,28,16,7,0.00,40.00,12,8,22,0.00
2013-8-16,89,75,68,38,26,-100,30,17,10,0.00,40.00,9,5,15,0.00
2013-8-17,87,75,67,44,33,-100,35,22,14,0.00,40.00,16,7,33,0.00
2013-8-18,87,75,66,44,42,40,42,32,19,0.00,40.00,13,7,26,0.00
2013-8-19,89,74,64,45,36,-100,44,30,16,0.00,40.00,12,6,17,0.00
2013-8-20,83,72,63,49,42,-100,44,35,26,0.00,40.00,10,6,21,0.00
2013-8-21,88,73,59,47,44,38,58,37,18,0.00,40.00,12,6,21,0.00
2013-8-22,81,72,65,48,45,43,48,39,31,0.00,40.00,9,6,19,0.00
2013-8-23,78,68,62,59,47,44,67,47,34,0.00,40.00,10,5,28,0.05
2013-8-24,78,66,60,50,43,-100,70,46,24,0.00,40.00,13,6,23,0.10
2013-8-25,66,58,56,59,54,50,97,86,64,0.00,40.00,6,4,14,0.68
2013-8-26,70,62,56,61,57,54,98,86,70,0.00,40.00,6,3,12,0.05
2013-8-27,72,61,57,62,56,54,95,84,62,0.00,40.00,7,4,12,0.12
2013-8-28,82,76,68,53,49,45,49,39,30,0.00,40.00,10,7,17,0.00
2013-8-29,86,74,61,51,47,43,60,40,22,0.00,40.00,11,6,18,0.00
2013-8-30,87,75,64,51,47,44,52,39,24,0.00,40.00,15,7,25,0.01
2013-8-31,83,72,65,53,47,-100,58,43,27,0.00,40.00,11,4,21,0.01
2013-9-1,83,72,59,54,50,45,64,48,34,0.00,40.00,10,6,19,0.00
2013-9-2,84,73,61,54,50,46,73,46,27,0.00,40.00,10,5,21,0.00
2013-9-3,85,75,65,52,48,43,54,40,26,0.00,40.00,10,6,20,0.00
2013-9-4,88,76,64,48,45,40,47,34,20,0.00,40.00,9,5,18,0.00
2013-9-5,88,76,66,47,46,42,47,35,24,0.00,40.00,13,5,29,0.00
2013-9-6,85,76,65,44,41,37,43,30,19,0.00,40.00,9,6,16,0.00
2013-9-7,86,74,64,46,40,-100,46,30,19,0.00,40.00,20,6,33,0.05
2013-9-8,71,65,58,53,49,44,81,57,46,0.00,40.00,11,7,24,0.04
2013-9-9,58,56,54,55,54,51,98,92,78,0.00,40.00,10,4,19,0.99
2013-9-10,60,56,53,57,55,52,99,95,87,0.00,40.00,7,3,11,0.66
2013-9-11,68,60,55,57,54,52,96,83,66,0.00,40.00,6,4,13,0.73
2013-9-12,73,63,56,55,50,47,87,65,45,0.00,40.00,8,5,21,0.45
2013-9-13,66,60,52,56,50,47,84,70,59,0.00,40.00,10,4,20,0.01
2013-9-14,64,56,52,55,50,-100,95,83,71,0.00,40.00,10,4,20,0.25
2013-9-15,70,58,50,55,50,47,92,78,49,0.00,40.00,8,4,14,0.01
2013-9-16,75,64,55,54,48,42,74,58,32,0.00,40.00,10,7,17,0.00
2013-9-17,73,65,57,57,49,45,83,57,45,0.00,40.00,11,8,23,0.06
2013-9-18,67,61,57,53,46,38,87,60,44,0.00,40.00,11,7,23,0.10
2013-9-19,70,57,45,46,29,19,78,38,14,0.00,40.00,8,4,12,0.00
2013-9-20,74,60,50,34,30,21,41,32,18,0.00,40.00,9,5,16,0.00
2013-9-21,75,65,58,43,34,-100,51,33,24,0.00,40.00,13,8,29,0.00
2013-9-22,68,56,44,46,44,39,95,68,44,0.00,40.00,17,9,34,0.45
2013-9-23,61,51,45,41,38,34,85,62,38,0.00,40.00,10,7,19,0.07
2013-9-24,69,57,43,43,35,24,66,46,25,0.00,40.00,13,6,25,0.00
2013-9-25,72,63,56,32,27,21,36,26,16,0.00,40.00,20,14,40,0.00
2013-9-26,66,61,54,33,27,20,37,28,18,0.00,40.00,16,13,39,0.00
2013-9-27,51,43,36,41,31,26,87,64,37,0.00,40.00,14,9,29,0.20
2013-9-28,56,42,31,28,23,-100,74,50,28,0.00,40.00,8,5,15,0.01
2013-9-29,66,52,39,30,23,15,53,34,21,0.00,40.00,10,5,20,0.00
2013-9-30,73,61,50,29,24,20,35,25,16,0.00,40.00,12,8,21,0.00
2013-10-1,72,61,55,30,25,22,28,25,20,0.00,40.00,10,8,16,0.00
2013-10-2,71,61,53,28,24,19,29,24,20,0.00,40.00,11,8,24,0.00
2013-10-3,64,54,31,43,28,22,97,42,25,0.00,40.00,18,10,33,0.06
2013-10-4,42,31,22,30,25,19,97,81,60,0.00,40.00,10,5,17,0.51
2013-10-5,47,35,26,28,24,19,84,65,40,0.00,40.00,7,4,15,0.01
2013-10-6,59,44,32,31,26,19,65,50,33,0.00,40.00,7,5,14,0.00
2013-10-7,62,49,37,38,32,22,67,52,37,0.00,40.00,7,4,13,0.00
2013-10-8,67,56,48,28,24,21,39,29,18,0.00,40.00,11,7,23,0.00
2013-10-9,63,56,49,28,24,21,40,29,23,0.00,40.00,18,8,35,0.00
2013-10-10,56,42,35,39,35,26,95,80,31,0.00,40.00,18,9,50,1.17
2013-10-11,51,43,38,35,33,30,87,68,50,0.00,40.00,13,10,25,0.31
2013-10-12,53,45,41,38,32,-100,73,62,47,0.00,40.00,10,6,16,0.00
2013-10-13,59,52,43,35,31,27,59,45,33,0.00,40.00,17,8,43,0.02
2013-10-14,48,41,37,36,33,30,91,74,53,0.00,40.00,11,8,22,0.27
2013-10-15,45,35,29,35,30,25,93,80,59,0.00,40.00,10,4,15,0.05
2013-10-16,47,34,25,25,23,21,88,65,37,0.00,40.00,8,3,16,0.02
2013-10-17,52,41,30,24,19,16,66,44,24,0.00,40.00,10,6,20,0.00
2013-10-18,49,39,30,24,20,17,71,48,28,0.00,40.00,9,5,17,0.00
2013-10-19,54,42,31,24,18,-100,62,40,23,0.00,40.00,10,6,18,0.00
2013-10-20,54,45,35,27,20,15,52,38,28,0.00,40.00,7,4,19,0.00
2013-10-21,56,44,34,27,22,19,63,43,23,0.00,40.00,6,4,13,0.00
2013-10-22,59,46,36,29,25,21,58,44,29,0.00,40.00,8,5,11,0.00
2013-10-23,62,48,38,30,25,20,55,41,28,0.00,40.00,9,4,11,0.00
2013-10-24,63,51,41,30,25,21,48,37,23,0.00,40.00,8,4,15,0.00
2013-10-25,58,50,42,33,30,24,57,45,34,0.00,40.00,11,6,18,0.00
2013-10-26,63,49,39,34,28,22,66,46,22,0.00,40.00,7,4,12,0.00
2013-10-27,60,50,41,33,28,22,53,43,32,0.00,40.00,10,5,17,0.00
2013-10-28,59,52,47,28,21,-100,42,31,20,0.00,40.00,22,13,41,0.00
2013-10-29,50,40,32,37,31,21,96,75,32,0.00,40.00,17,8,37,0.42
2013-10-30,39,33,28,33,30,27,96,86,69,0.00,40.00,10,5,22,0.18
2013-10-31,43,36,32,28,26,23,85,66,51,0.00,40.00,9,7,18,0.18
2013-11-1,50,40,34,31,26,24,74,58,38,0.00,40.00,10,5,18,0.00
2013-11-2,51,39,31,32,24,-100,72,57,47,0.00,40.00,8,3,10,0.00
2013-11-3,53,43,27,25,20,9,55,41,24,0.00,40.00,14,7,28,0.00
2013-11-4,36,28,22,23,12,4,87,52,34,0.00,40.00,6,3,13,0.00
2013-11-5,35,27,21,23,14,7,93,62,32,0.00,40.00,8,4,15,0.03
2013-11-6,41,29,22,17,12,7,63,49,32,0.00,40.00,9,4,15,0.01
2013-11-7,48,36,28,24,20,18,68,54,35,0.00,40.00,7,4,12,0.00
2013-11-8,55,43,29,25,20,15,64,41,27,0.00,40.00,8,4,16,0.00
2013-11-9,55,43,35,24,20,17,51,41,28,0.00,40.00,6,4,13,0.00
2013-11-10,57,45,37,25,20,15,50,36,23,0.00,40.00,9,4,18,0.00
2013-11-11,59,45,35,25,20,14,52,38,25,0.00,40.00,8,4,10,0.00
2013-11-12,59,47,38,28,21,15,46,36,24,0.00,40.00,9,5,13,0.00
2013-11-13,51,43,35,27,22,16,59,44,34,0.00,40.00,6,3,16,0.00
2013-11-14,52,41,31,28,21,14,71,47,25,0.00,40.00,11,5,23,0.00
2013-11-15,50,41,33,31,21,14,93,48,31,0.00,40.00,13,8,23,0.02
2013-11-16,40,35,32,32,24,-100,86,67,51,0.00,40.00,15,9,32,0.07
2013-11-17,49,40,33,29,25,22,66,55,44,0.00,40.00,12,7,23,0.02
2013-11-18,50,39,31,28,25,21,72,58,42,0.00,40.00,8,4,12,0.00
2013-11-19,46,39,33,31,27,21,71,61,51,0.00,40.00,7,3,13,0.00
2013-11-20,45,38,33,34,30,25,96,74,54,0.00,40.00,7,3,11,0.15
2013-11-21,40,35,28,38,34,27,97,95,91,0.00,40.00,6,3,12,0.34
2013-11-22,31,30,27,30,25,21,96,84,72,0.00,40.00,9,7,19,0.01
2013-11-23,35,32,30,33,31,29,97,94,88,0.00,40.00,8,4,13,0.46
2013-11-24,36,32,28,33,30,26,98,94,87,0.00,40.00,7,4,16,0.28
2013-11-25,41,30,21,26,21,18,95,72,40,0.00,40.00,6,4,9,0.01
2013-11-26,42,32,25,26,20,17,87,64,45,0.00,40.00,7,5,12,0.01
2013-11-27,41,30,21,30,23,15,94,76,60,0.00,40.00,5,2,10,0.00
2013-11-28,37,29,19,31,25,17,95,86,73,0.00,40.00,6,3,9,0.00
2013-11-29,29,26,22,28,24,20,96,94,93,0.00,40.00,3,1,9,0.01
2013-11-30,30,27,24,29,26,23,96,95,94,0.00,40.00,4,1,5,0.01
2013-12-1,30,27,25,28,26,24,96,95,92,0.00,40.00,5,2,9,0.01
2013-12-2,29,27,25,28,26,24,96,95,94,0.00,40.00,5,2,12,0.01
2013-12-3,39,30,22,31,25,20,95,84,51,0.00,40.00,15,5,28,0.01
2013-12-4,25,13,-2,24,9,-8,94,83,74,0.00,40.00,8,4,12,0.01
2013-12-5,19,5,-3,7,-3,-10,80,69,53,0.00,40.00,8,3,10,0.20
2013-12-6,17,7,0,8,0,-7,82,72,62,0.00,40.00,5,2,9,0.05
2013-12-7,22,18,9,17,12,3,90,78,65,0.00,40.00,11,4,26,0.01
2013-12-8,19,13,6,16,4,-6,87,67,50,0.00,40.00,17,11,28,0.00
2013-12-9,18,6,-2,0,-6,-11,78,59,31,0.00,40.00,6,4,12,0.04
2013-12-10,20,8,-3,2,-4,-10,70,57,41,0.00,40.00,6,3,11,0.08
2013-12-11,28,16,7,10,2,-5,69,54,42,0.00,40.00,6,3,9,0.13
2013-12-12,36,22,10,15,8,2,72,56,40,0.00,40.00,5,2,7,0.03
2013-12-13,33,21,14,14,9,4,73,59,44,0.00,40.00,8,3,10,0.01
2013-12-14,34,23,15,17,12,8,78,64,48,0.00,40.00,8,4,12,0.00
2013-12-15,39,26,17,19,13,8,72,60,37,0.00,40.00,7,3,10,0.00
2013-12-16,44,29,20,21,16,12,74,59,37,0.00,40.00,9,3,12,0.00
2013-12-17,46,32,22,23,16,12,68,53,37,0.00,40.00,6,2,10,0.00
2013-12-18,41,30,22,22,18,13,73,61,43,0.00,40.00,5,3,12,0.00
2013-12-19,44,32,25,29,23,18,93,71,37,0.00,40.00,9,4,21,0.00
2013-12-20,35,28,20,25,21,12,86,74,58,0.00,40.00,10,4,16,0.00
2013-12-21,30,22,15,21,14,-100,85,73,56,0.00,40.00,7,3,12,0.03
2013-12-22,36,23,14,16,12,7,81,62,35,0.00,40.00,15,7,24,0.02
2013-12-23,40,27,19,22,18,14,81,68,45,0.00,40.00,11,3,18,0.00
2013-12-24,38,26,20,22,17,7,86,67,48,0.00,40.00,16,5,25,0.00
2013-12-25,38,24,17,16,5,-4,58,44,25,0.00,40.00,7,5,10,0.00
2013-12-26,42,29,16,14,5,-4,53,37,28,0.00,40.00,9,4,11,0.00
2013-12-27,47,32,23,21,14,8,66,49,31,0.00,40.00,6,2,8,0.00
2013-12-28,38,27,22,20,14,-100,73,60,45,0.00,40.00,7,3,10,0.00
2013-12-29,34,23,14,15,9,1,82,56,31,0.00,40.00,5,3,10,0.00
2013-12-30,39,25,16,14,9,3,67,51,32,0.00,40.00,7,3,10,0.00
2013-12-31,39,29,21,20,16,11,69,57,38,0.00,40.00,6,2,10,0.00
2014-1-1,42,32,23,19,16,11,71,54,37,0.00,40.00,14,4,27,0.00
2014-1-2,42,28,20,20,14,9,67,56,37,0.00,40.00,6,3,8,0.00